KCCB

Cable Airport

Upland, California, USA
METAR KCCB 150315Z AUTO 25007KT 10SM 25/11 A2988 RMK AO2
Observed Flight Rules
Aug-15 @ 03:15 UTC (21 minutes ago)
Wind Visibility
250° at 7 knots 10 miles
Temperatures Readings
Current 25°C / 77°F
Dewpoint 11°C / 52°F
Humidity 42%
Altimeter 29.88" Hg
Pressure 1012 hPa
Elevation 440
METAR KCCB 150315Z AUTO 25007KT 10SM 25/11 A2988 RMK AO2
Observed Flight Rules
Aug-15 @ 03:15 UTC
(21 minutes ago)
Wind Visibility
250° at 7 knots 10 miles
Temperature Dewpoint
25°C / 77°F 11°C / 52°F
Humidity Altimeter Pressure
42% 29.88" Hg 1012 hPa